createdAt,value
2023-04-21T00:00:03.211Z,68.40
2023-04-21T00:02:30.148Z,69.07
2023-04-21T00:04:57.193Z,69.70
2023-04-21T00:07:24.870Z,70.70
2023-04-21T00:09:51.728Z,70.07
2023-04-21T00:12:19.931Z,62.33
2023-04-21T00:14:46.750Z,69.80
2023-04-21T00:17:13.659Z,83.63
2023-04-21T00:19:40.481Z,74.17
2023-04-21T00:22:12.170Z,103.40
2023-04-21T00:24:38.942Z,78.67
2023-04-21T00:27:06.136Z,77.27
2023-04-21T00:29:32.932Z,75.03
2023-04-21T00:32:00.855Z,71.77
2023-04-21T00:34:27.814Z,68.53
2023-04-21T00:36:54.744Z,67.23
2023-04-21T00:39:21.692Z,68.77
2023-04-21T00:41:48.696Z,71.43
2023-04-21T00:44:15.496Z,70.63
2023-04-21T00:46:43.943Z,78.40
2023-04-21T00:49:13.366Z,81.70
2023-04-21T00:51:40.807Z,79.00
2023-04-21T00:54:09.417Z,79.47
2023-04-21T00:56:36.952Z,79.53
2023-04-21T00:59:04.202Z,71.40
2023-04-21T01:01:32.839Z,75.87
2023-04-21T01:04:01.025Z,72.67
2023-04-21T01:06:29.375Z,75.23
2023-04-21T01:08:56.422Z,74.33
2023-04-21T01:11:23.262Z,72.67
2023-04-21T01:13:54.069Z,78.37
2023-04-21T01:16:21.813Z,69.40
2023-04-21T01:18:48.805Z,63.67
2023-04-21T01:21:19.738Z,71.77
2023-04-21T01:23:46.669Z,65.80
2023-04-21T01:26:13.616Z,71.80
2023-04-21T01:28:40.568Z,70.63
2023-04-21T01:31:07.463Z,83.10
2023-04-21T01:36:09.829Z,73.73
2023-04-21T01:38:42.791Z,71.23
2023-04-21T01:41:10.957Z,79.50
2023-04-21T01:43:38.019Z,80.37
2023-04-21T01:46:06.020Z,69.80
2023-04-21T01:48:32.913Z,81.17
2023-04-21T01:50:59.790Z,75.23
2023-04-21T01:53:27.152Z,76.10
2023-04-21T01:55:54.074Z,75.43
2023-04-21T01:58:21.681Z,77.37
2023-04-21T02:00:48.498Z,74.23
2023-04-21T02:03:15.397Z,79.20
2023-04-21T02:05:42.345Z,79.07
2023-04-21T02:08:09.151Z,83.90
2023-04-21T02:10:36.065Z,78.43
2023-04-21T02:13:02.959Z,70.43
2023-04-21T02:15:29.913Z,81.33
2023-04-21T02:17:56.952Z,78.97
2023-04-21T02:20:23.849Z,87.33
2023-04-21T02:22:50.749Z,89.03
2023-04-21T02:25:17.620Z,93.33
2023-04-21T02:27:44.414Z,81.07
2023-04-21T02:30:11.408Z,90.13
2023-04-21T02:32:38.606Z,95.20
2023-04-21T02:35:06.102Z,90.10
2023-04-21T02:37:33.062Z,94.50
2023-04-21T02:39:59.866Z,80.67
2023-04-21T02:42:26.912Z,84.23
2023-04-21T02:44:53.697Z,90.80
2023-04-21T02:47:20.795Z,95.13
2023-04-21T02:49:47.585Z,107.90
2023-04-21T02:52:14.410Z,103.63
2023-04-21T02:54:41.239Z,100.63
2023-04-21T02:57:08.051Z,98.20
2023-04-21T02:59:34.829Z,100.80
2023-04-21T03:02:01.812Z,109.30
2023-04-21T03:04:28.858Z,97.57
2023-04-21T03:06:55.873Z,88.27
2023-04-21T03:09:22.697Z,103.23
2023-04-21T03:11:49.492Z,92.10
2023-04-21T03:14:16.313Z,101.50
2023-04-21T03:16:43.286Z,111.60
2023-04-21T03:19:10.122Z,106.93
2023-04-21T03:21:39.078Z,102.43
2023-04-21T03:24:07.544Z,114.23
2023-04-21T03:26:34.491Z,127.30
2023-04-21T03:29:01.548Z,110.47
2023-04-21T03:31:28.438Z,114.00
2023-04-21T03:33:55.314Z,110.33
2023-04-21T03:36:22.212Z,116.33
2023-04-21T03:38:49.045Z,120.37
2023-04-21T03:41:15.887Z,110.50
2023-04-21T03:43:42.789Z,123.53
2023-04-21T03:46:18.224Z,129.63
2023-04-21T03:48:45.829Z,115.77
2023-04-21T03:51:12.610Z,120.93
2023-04-21T03:53:39.546Z,106.37
2023-04-21T03:56:06.642Z,117.37
2023-04-21T03:58:33.439Z,132.77
2023-04-21T04:01:00.499Z,134.40
2023-04-21T04:03:27.550Z,135.40
2023-04-21T04:05:54.516Z,131.13
2023-04-21T04:08:21.865Z,120.27
2023-04-21T04:10:48.774Z,123.43
2023-04-21T04:13:15.964Z,134.73
2023-04-21T04:15:42.828Z,136.73
2023-04-21T04:18:09.710Z,146.00
2023-04-21T04:20:36.756Z,127.73
2023-04-21T04:23:03.731Z,141.90
2023-04-21T04:25:31.198Z,145.33
2023-04-21T04:27:58.063Z,141.27
2023-04-21T04:30:28.024Z,134.97
2023-04-21T04:32:55.518Z,147.43
2023-04-21T04:35:22.472Z,146.37
2023-04-21T04:37:49.887Z,144.60
2023-04-21T04:40:16.728Z,156.77
2023-04-21T04:42:45.628Z,146.07
2023-04-21T04:45:14.029Z,151.57
2023-04-21T04:47:40.969Z,135.80
2023-04-21T04:50:08.467Z,152.37
2023-04-21T04:52:35.623Z,155.87
2023-04-21T04:55:02.441Z,145.13
2023-04-21T04:57:29.201Z,152.00
2023-04-21T04:59:56.404Z,133.47
2023-04-21T05:02:24.539Z,130.93
2023-04-21T05:04:51.839Z,151.20
2023-04-21T05:07:18.838Z,140.00
2023-04-21T05:09:45.625Z,142.40
2023-04-21T05:12:12.397Z,139.43
2023-04-21T05:14:39.177Z,138.07
2023-04-21T05:17:06.006Z,132.80
2023-04-21T05:19:36.310Z,140.00
2023-04-21T05:22:03.615Z,122.80
2023-04-21T05:24:30.518Z,118.07
2023-04-21T05:26:57.310Z,121.60
2023-04-21T05:29:24.091Z,119.20
2023-04-21T05:31:51.085Z,117.57
2023-04-21T05:34:18.083Z,123.43
2023-04-21T05:36:44.981Z,113.20
2023-04-21T05:39:11.851Z,108.17
2023-04-21T05:41:38.851Z,105.17
2023-04-21T05:44:05.832Z,100.80
2023-04-21T05:46:35.079Z,96.63
2023-04-21T05:49:05.061Z,99.07
2023-04-21T05:51:32.277Z,100.73
2023-04-21T05:53:59.141Z,98.23
2023-04-21T05:56:26.141Z,89.73
2023-04-21T05:58:52.940Z,103.27
2023-04-21T06:01:19.709Z,99.67
2023-04-21T06:03:49.267Z,97.90
2023-04-21T06:06:16.430Z,75.90
2023-04-21T06:08:43.290Z,72.87
2023-04-21T06:11:10.231Z,57.50
2023-04-21T06:13:38.588Z,50.50
2023-04-21T06:16:06.434Z,54.00
2023-04-21T06:18:33.404Z,45.50
2023-04-21T06:21:00.267Z,43.13
2023-04-21T06:23:27.070Z,44.17
2023-04-21T06:26:05.439Z,40.33
2023-04-21T06:28:33.249Z,49.03
2023-04-21T06:31:01.724Z,39.20
2023-04-21T06:33:28.759Z,36.67
2023-04-21T06:35:56.060Z,35.10
2023-04-21T06:38:23.119Z,38.70
2023-04-21T06:40:50.938Z,32.93
2023-04-21T06:43:17.730Z,35.33
2023-04-21T06:45:44.558Z,36.63
2023-04-21T06:48:11.405Z,34.00
2023-04-21T06:50:38.252Z,38.53
2023-04-21T06:53:05.293Z,31.80
2023-04-21T06:55:32.222Z,33.43
2023-04-21T06:57:59.037Z,33.77
2023-04-21T07:00:25.924Z,33.40
2023-04-21T07:02:52.865Z,37.50
2023-04-21T07:05:19.817Z,33.73
2023-04-21T07:07:46.594Z,29.03
2023-04-21T07:10:19.160Z,30.13
2023-04-21T07:12:46.583Z,30.87
2023-04-21T07:15:13.541Z,27.13
2023-04-21T07:17:40.380Z,28.23
2023-04-21T07:20:08.163Z,29.90
2023-04-21T07:22:36.237Z,28.70
2023-04-21T07:25:06.588Z,27.90
2023-04-21T07:27:34.855Z,24.90
2023-04-21T07:30:01.765Z,29.43
2023-04-21T07:32:28.581Z,25.30
2023-04-21T07:34:55.564Z,26.53
2023-04-21T07:37:23.998Z,25.40
2023-04-21T07:39:51.776Z,25.03
2023-04-21T07:42:18.834Z,23.90
2023-04-21T07:44:45.790Z,24.30
2023-04-21T07:47:12.814Z,22.20
2023-04-21T07:49:39.642Z,23.47
2023-04-21T07:52:06.694Z,24.20
2023-04-21T07:54:33.684Z,22.30
2023-04-21T07:57:01.827Z,21.07
2023-04-21T07:59:28.700Z,22.83
2023-04-21T08:01:55.518Z,20.83
2023-04-21T08:04:22.544Z,27.37
2023-04-21T08:06:50.000Z,25.43
2023-04-21T08:11:58.159Z,21.80
2023-04-21T08:17:07.721Z,23.30
2023-04-21T08:19:34.587Z,21.87
2023-04-21T08:22:01.488Z,20.83
2023-04-21T08:24:28.322Z,22.90
2023-04-21T08:26:55.372Z,22.90
2023-04-21T08:29:22.715Z,23.73
2023-04-21T08:31:49.592Z,21.33
2023-04-21T08:34:16.507Z,20.83
2023-04-21T08:36:44.167Z,24.40
2023-04-21T08:39:11.427Z,20.90
2023-04-21T08:41:40.724Z,24.23
2023-04-21T08:44:08.633Z,21.37
2023-04-21T08:46:36.928Z,22.37
2023-04-21T08:49:04.073Z,29.60
2023-04-21T08:51:31.950Z,24.83
2023-04-21T08:53:58.851Z,25.00
2023-04-21T08:56:28.777Z,22.23
2023-04-21T08:58:56.630Z,25.80
2023-04-21T09:01:23.528Z,23.13
2023-04-21T09:03:50.726Z,23.90
2023-04-21T09:06:18.276Z,24.43
2023-04-21T09:08:56.148Z,23.67
2023-04-21T09:11:23.519Z,24.80
2023-04-21T09:13:50.519Z,23.77
2023-04-21T09:16:21.446Z,22.40
2023-04-21T09:18:49.656Z,28.10
2023-04-21T09:21:18.305Z,31.10
2023-04-21T09:23:53.218Z,25.70
2023-04-21T09:26:25.210Z,30.00
2023-04-21T09:28:53.225Z,30.63
2023-04-21T09:31:29.382Z,33.40
2023-04-21T09:34:00.843Z,32.33
2023-04-21T09:36:29.917Z,31.40
2023-04-21T09:41:32.827Z,37.23
2023-04-21T09:44:16.634Z,30.13
2023-04-21T09:46:45.537Z,29.00
2023-04-21T09:49:16.430Z,32.20
2023-04-21T09:52:10.287Z,30.80
2023-04-21T09:54:34.652Z,28.23
2023-04-21T09:57:04.123Z,29.03
2023-04-21T09:59:36.778Z,32.67
2023-04-21T10:02:08.005Z,33.50
2023-04-21T10:04:37.707Z,33.20
2023-04-21T10:07:05.377Z,31.83
2023-04-21T10:09:39.129Z,29.63
2023-04-21T10:12:09.158Z,29.33
2023-04-21T10:14:36.688Z,27.57
2023-04-21T10:17:10.048Z,28.70
2023-04-21T10:19:47.582Z,26.97
2023-04-21T10:22:14.477Z,26.93
2023-04-21T10:24:42.245Z,31.50
2023-04-21T10:27:13.212Z,34.97
2023-04-21T10:29:55.206Z,26.80
2023-04-21T10:32:42.888Z,27.50
2023-04-21T10:35:50.169Z,28.60
2023-04-21T10:38:43.770Z,23.20
2023-04-21T10:41:30.823Z,25.33
2023-04-21T10:44:07.378Z,25.73
2023-04-21T10:46:39.739Z,26.33
2023-04-21T10:49:11.093Z,25.70
2023-04-21T10:52:00.002Z,21.97
2023-04-21T10:54:28.424Z,24.03
2023-04-21T10:56:59.840Z,24.60
2023-04-21T10:59:27.395Z,27.83
2023-04-21T11:01:55.105Z,27.00
2023-04-21T11:04:23.487Z,19.90
2023-04-21T11:07:23.462Z,19.50
2023-04-21T11:10:16.854Z,20.83
2023-04-21T11:12:43.733Z,22.93
2023-04-21T11:15:13.455Z,26.30
2023-04-21T11:17:43.577Z,26.17
2023-04-21T11:20:10.806Z,26.03
2023-04-21T11:22:39.033Z,22.70
2023-04-21T11:25:06.504Z,28.60
2023-04-21T11:27:33.341Z,25.90
2023-04-21T11:30:04.129Z,23.83
2023-04-21T11:32:31.155Z,23.73
2023-04-21T11:34:58.189Z,15.10
2023-04-21T11:37:30.066Z,20.77
2023-04-21T11:39:58.769Z,17.63
2023-04-21T11:42:25.861Z,14.37
2023-04-21T11:44:56.691Z,15.60
2023-04-21T11:47:26.116Z,20.00
2023-04-21T11:49:58.399Z,22.40
2023-04-21T11:52:33.093Z,20.97
2023-04-21T11:55:28.808Z,22.40
2023-04-21T11:57:57.850Z,17.87
2023-04-21T12:00:29.566Z,24.13
2023-04-21T12:02:57.291Z,20.57
2023-04-21T12:05:24.457Z,20.50
2023-04-21T12:07:53.961Z,20.10
2023-04-21T12:10:21.672Z,20.27
2023-04-21T12:12:49.001Z,18.93
2023-04-21T12:15:21.587Z,20.13
2023-04-21T12:17:50.977Z,19.83
2023-04-21T12:20:22.118Z,32.23
2023-04-21T12:22:49.509Z,22.27
2023-04-21T12:25:16.996Z,20.10
2023-04-21T12:27:51.207Z,19.60
2023-04-21T12:30:18.877Z,18.10
2023-04-21T12:32:46.159Z,19.70
2023-04-21T12:35:13.015Z,19.00
2023-04-21T12:37:39.860Z,24.20
2023-04-21T12:40:08.222Z,25.23
2023-04-21T12:42:37.443Z,20.80
2023-04-21T12:45:05.513Z,27.57
2023-04-21T12:47:32.493Z,22.60
2023-04-21T12:49:59.313Z,22.80
2023-04-21T12:52:27.012Z,22.97
2023-04-21T12:54:53.995Z,23.70
2023-04-21T12:57:21.396Z,23.03
2023-04-21T12:59:48.949Z,24.07
2023-04-21T13:02:16.413Z,28.10
2023-04-21T13:04:43.298Z,27.47
2023-04-21T13:07:10.653Z,26.37
2023-04-21T13:09:37.615Z,24.93
2023-04-21T13:12:04.789Z,30.20
2023-04-21T13:14:31.870Z,31.13
2023-04-21T13:16:59.112Z,26.93
2023-04-21T13:19:26.728Z,26.73
2023-04-21T13:21:54.359Z,22.57
2023-04-21T13:24:21.824Z,30.90
2023-04-21T13:26:48.789Z,27.47
2023-04-21T13:29:16.150Z,36.53
2023-04-21T13:31:43.078Z,25.23
2023-04-21T13:34:09.943Z,27.70
2023-04-21T13:36:36.862Z,25.53
2023-04-21T13:39:05.783Z,28.47
2023-04-21T13:41:32.704Z,20.50
2023-04-21T13:43:59.584Z,24.63
2023-04-21T13:46:26.528Z,23.40
2023-04-21T13:48:53.946Z,22.53
2023-04-21T13:51:21.112Z,22.00
2023-04-21T13:53:48.782Z,27.90
2023-04-21T13:56:16.350Z,20.00
2023-04-21T13:58:43.479Z,25.37
2023-04-21T14:01:10.490Z,21.13
2023-04-21T14:03:37.460Z,23.57
2023-04-21T14:06:04.946Z,18.70
2023-04-21T14:08:31.945Z,22.23
2023-04-21T14:10:58.952Z,16.53
2023-04-21T14:13:36.418Z,14.40
2023-04-21T14:16:09.099Z,11.90
2023-04-21T14:18:36.563Z,11.80
2023-04-21T14:21:03.453Z,9.53
2023-04-21T14:23:30.575Z,9.03
2023-04-21T14:25:57.446Z,13.83
2023-04-21T14:28:24.308Z,9.87
2023-04-21T14:30:51.179Z,10.50
2023-04-21T14:33:18.099Z,14.20
2023-04-21T14:35:45.099Z,9.00
2023-04-21T14:38:11.932Z,9.50
2023-04-21T14:40:38.758Z,9.10
2023-04-21T14:43:06.027Z,9.23
2023-04-21T14:45:33.155Z,8.87
2023-04-21T14:48:00.136Z,14.60
2023-04-21T14:50:27.030Z,11.47
2023-04-21T14:52:53.852Z,10.90
2023-04-21T14:55:20.822Z,9.07
2023-04-21T14:57:47.604Z,10.20
2023-04-21T15:00:14.766Z,9.27
2023-04-21T15:02:41.800Z,16.73
2023-04-21T15:05:09.111Z,10.30
2023-04-21T15:07:36.320Z,9.30
2023-04-21T15:10:03.468Z,9.40
2023-04-21T15:12:30.429Z,9.47
2023-04-21T15:14:57.206Z,10.50
2023-04-21T15:17:24.199Z,9.83
2023-04-21T15:19:51.627Z,9.97
2023-04-21T15:22:18.828Z,19.10
2023-04-21T15:24:46.473Z,9.27
2023-04-21T15:27:13.260Z,15.37
2023-04-21T15:29:40.301Z,11.63
2023-04-21T15:32:07.146Z,9.23
2023-04-21T15:34:34.095Z,9.73
2023-04-21T15:37:00.939Z,9.40
2023-04-21T15:39:27.846Z,9.10
2023-04-21T15:41:55.248Z,8.20
2023-04-21T15:44:22.167Z,10.83
2023-04-21T15:46:49.003Z,8.40
2023-04-21T15:49:16.061Z,9.63
2023-04-21T15:51:43.200Z,8.60
2023-04-21T15:54:10.595Z,8.20
2023-04-21T15:56:37.478Z,7.47
2023-04-21T15:59:04.820Z,7.77
2023-04-21T16:01:31.722Z,7.10
2023-04-21T16:03:59.709Z,6.87
2023-04-21T16:06:29.464Z,7.43
2023-04-21T16:08:56.876Z,8.97
2023-04-21T16:11:25.104Z,7.50
2023-04-21T16:13:52.202Z,7.90
2023-04-21T16:16:19.015Z,8.23
2023-04-21T16:18:45.940Z,8.10
2023-04-21T16:21:13.242Z,9.00
2023-04-21T16:23:40.528Z,8.67
2023-04-21T16:26:09.220Z,7.47
2023-04-21T16:28:36.249Z,8.83
2023-04-21T16:31:03.339Z,4.83
2023-04-21T16:33:30.864Z,2.53
2023-04-21T16:35:57.863Z,3.13
2023-04-21T16:38:25.077Z,4.03
2023-04-21T16:40:52.222Z,4.00
2023-04-21T16:43:19.095Z,3.40
2023-04-21T16:45:46.008Z,2.10
2023-04-21T16:48:13.261Z,8.30
2023-04-21T16:50:42.013Z,1.97
2023-04-21T16:53:09.115Z,1.70
2023-04-21T16:55:36.016Z,3.17
2023-04-21T16:58:02.998Z,1.90
2023-04-21T17:00:30.521Z,7.90
2023-04-21T17:02:57.847Z,8.50
2023-04-21T17:05:25.742Z,2.67
2023-04-21T17:07:52.576Z,9.60
2023-04-21T17:10:19.491Z,5.10
2023-04-21T17:12:46.471Z,5.30
2023-04-21T17:15:13.394Z,3.00
2023-04-21T17:17:43.044Z,3.03
2023-04-21T17:20:11.869Z,3.23
2023-04-21T17:22:39.683Z,7.53
2023-04-21T17:25:07.927Z,3.23
2023-04-21T17:27:36.778Z,5.00
2023-04-21T17:30:04.919Z,3.30
2023-04-21T17:32:34.023Z,3.67
2023-04-21T17:35:01.640Z,4.50
2023-04-21T17:37:30.323Z,4.37
2023-04-21T17:39:59.264Z,5.00
2023-04-21T17:42:29.179Z,7.43
2023-04-21T17:44:55.991Z,5.20
2023-04-21T17:47:22.915Z,4.37
2023-04-21T17:49:49.748Z,5.67
2023-04-21T17:52:17.278Z,4.37
2023-04-21T17:54:44.249Z,5.13
2023-04-21T17:57:11.982Z,9.10
2023-04-21T17:59:39.367Z,7.80
2023-04-21T18:02:06.828Z,18.83
2023-04-21T18:04:34.804Z,5.90
2023-04-21T18:07:02.824Z,5.63
2023-04-21T18:09:32.739Z,4.83
2023-04-21T18:11:59.598Z,4.73
2023-04-21T18:14:26.966Z,4.90
2023-04-21T18:16:54.195Z,7.33
2023-04-21T18:19:21.053Z,5.33
2023-04-21T18:21:47.891Z,5.27
2023-04-21T18:24:15.397Z,7.00
2023-04-21T18:26:42.725Z,5.50
2023-04-21T18:29:09.562Z,6.03
2023-04-21T18:31:36.544Z,8.00
2023-04-21T18:34:03.474Z,5.77
2023-04-21T18:36:33.032Z,5.37
2023-04-21T18:39:00.920Z,5.50
2023-04-21T18:41:27.919Z,8.20
2023-04-21T18:43:54.985Z,4.60
2023-04-21T18:46:22.312Z,4.23
2023-04-21T18:48:49.242Z,4.53
2023-04-21T18:51:16.116Z,4.30
2023-04-21T18:53:43.425Z,3.80
2023-04-21T18:56:10.427Z,3.80
2023-04-21T18:58:37.324Z,4.63
2023-04-21T19:01:04.189Z,4.40
2023-04-21T19:03:31.424Z,5.03
2023-04-21T19:05:58.474Z,4.50
2023-04-21T19:08:38.759Z,5.20
2023-04-21T19:11:10.401Z,4.87
2023-04-21T19:13:37.633Z,5.60
2023-04-21T19:16:05.424Z,6.23
2023-04-21T19:18:32.489Z,6.60
2023-04-21T19:20:59.329Z,9.83
2023-04-21T19:23:26.157Z,11.40
2023-04-21T19:25:55.217Z,3.57
2023-04-21T19:28:22.051Z,3.07
2023-04-21T19:30:49.165Z,6.00
2023-04-21T19:33:16.433Z,4.40
2023-04-21T19:35:43.461Z,3.53
2023-04-21T19:38:10.514Z,3.20
2023-04-21T19:40:37.458Z,2.33
2023-04-21T19:43:05.042Z,2.97
2023-04-21T19:45:31.939Z,4.40
2023-04-21T19:47:58.917Z,2.37
2023-04-21T19:50:26.029Z,2.60
2023-04-21T19:52:52.969Z,3.47
2023-04-21T19:55:19.733Z,2.70
2023-04-21T19:57:46.487Z,2.87
2023-04-21T20:00:14.189Z,2.37
2023-04-21T20:02:41.129Z,2.30
2023-04-21T20:05:09.542Z,2.80
2023-04-21T20:07:37.383Z,2.83
2023-04-21T20:10:06.054Z,2.70
2023-04-21T20:12:33.192Z,2.50
2023-04-21T20:15:01.268Z,2.80
2023-04-21T20:17:29.133Z,2.40
2023-04-21T20:19:56.125Z,7.50
2023-04-21T20:22:22.976Z,3.60
2023-04-21T20:24:52.124Z,7.37
2023-04-21T20:27:19.064Z,3.47
2023-04-21T20:29:46.868Z,3.40
2023-04-21T20:32:14.051Z,4.93
2023-04-21T20:34:41.058Z,3.67
2023-04-21T20:37:08.029Z,6.03
2023-04-21T20:39:34.876Z,3.33
2023-04-21T20:42:12.682Z,3.40
2023-04-21T20:44:42.817Z,3.70
2023-04-21T20:47:10.838Z,3.30
2023-04-21T20:49:38.818Z,2.97
2023-04-21T20:52:06.153Z,3.67
2023-04-21T20:54:34.945Z,3.60
2023-04-21T20:57:02.456Z,3.87
2023-04-21T20:59:29.367Z,2.70
2023-04-21T21:01:56.292Z,3.30
2023-04-21T21:04:23.384Z,4.17
2023-04-21T21:06:50.585Z,3.20
2023-04-21T21:09:19.203Z,3.07
2023-04-21T21:11:46.214Z,3.27
2023-04-21T21:14:13.270Z,2.80
2023-04-21T21:16:40.683Z,3.77
2023-04-21T21:19:07.707Z,3.57
2023-04-21T21:21:34.564Z,3.57
2023-04-21T21:24:01.461Z,3.90
2023-04-21T21:26:29.039Z,4.20
2023-04-21T21:28:56.214Z,4.83
2023-04-21T21:31:23.286Z,3.80
2023-04-21T21:33:50.425Z,6.13
2023-04-21T21:36:17.285Z,4.90
2023-04-21T21:38:44.232Z,7.17
2023-04-21T21:41:12.503Z,5.20
2023-04-21T21:43:39.395Z,5.97
2023-04-21T21:46:06.470Z,6.43
2023-04-21T21:48:33.463Z,5.50
2023-04-21T21:51:00.441Z,6.07
2023-04-21T21:53:27.266Z,7.20
2023-04-21T21:55:54.268Z,8.73
2023-04-21T21:58:21.553Z,5.73
2023-04-21T22:00:51.932Z,8.90
2023-04-21T22:03:19.787Z,5.73
2023-04-21T22:05:47.179Z,12.23
2023-04-21T22:08:15.708Z,5.27
2023-04-21T22:10:43.249Z,5.80
2023-04-21T22:13:10.779Z,6.10
2023-04-21T22:15:38.817Z,5.80
2023-04-21T22:18:07.386Z,5.50
2023-04-21T22:20:34.342Z,6.00
2023-04-21T22:23:01.133Z,6.70
2023-04-21T22:25:28.037Z,6.43
2023-04-21T22:27:55.888Z,6.00
2023-04-21T22:30:23.207Z,5.53
2023-04-21T22:32:50.257Z,5.97
2023-04-21T22:35:17.366Z,5.10
2023-04-21T22:37:44.189Z,6.23
2023-04-21T22:40:11.457Z,6.03
2023-04-21T22:42:38.626Z,6.60
2023-04-21T22:45:05.954Z,6.67
2023-04-21T22:47:33.674Z,7.30
2023-04-21T22:50:00.570Z,7.27
2023-04-21T22:52:27.423Z,7.13
2023-04-21T22:54:54.684Z,6.50
2023-04-21T22:57:21.854Z,6.97
2023-04-21T22:59:48.663Z,7.73
2023-04-21T23:02:16.010Z,7.50
2023-04-21T23:04:42.968Z,8.67
2023-04-21T23:07:09.833Z,7.77
2023-04-21T23:09:36.822Z,8.13
2023-04-21T23:12:06.221Z,7.90
2023-04-21T23:14:33.223Z,8.37
2023-04-21T23:17:00.334Z,10.23
2023-04-21T23:19:27.245Z,8.60
2023-04-21T23:21:54.131Z,9.10
2023-04-21T23:24:20.979Z,10.20
2023-04-21T23:26:47.764Z,9.80
2023-04-21T23:29:14.654Z,13.70
2023-04-21T23:31:41.585Z,10.60
2023-04-21T23:34:08.510Z,10.13
2023-04-21T23:36:35.940Z,11.47
2023-04-21T23:39:06.292Z,10.60
2023-04-21T23:41:33.192Z,10.70
2023-04-21T23:44:00.069Z,10.20
2023-04-21T23:46:26.958Z,9.27
2023-04-21T23:48:53.839Z,11.33
2023-04-21T23:51:22.055Z,11.67
2023-04-21T23:53:48.983Z,11.70
2023-04-21T23:56:15.880Z,13.97
2023-04-21T23:58:42.660Z,12.77
